This is the latest recevied weather packets stored in our database for station/object SQ9RHX-11. If no packets are shown the sender has not sent any weather packets the latest 10 day(s).
| Time | Temp. | Humidity | Pressure | Rain* | Wind** | Luminosity | Snow |
|---|---|---|---|---|---|---|---|
| 1777489365 | 2.78° C | 40% | 1030.7 hPa | - | - | - | - |
| 1777487566 | 5.56° C | 38% | 1030.3 hPa | - | - | - | - |
| 1777485766 | 7.22° C | 36% | 1030.1 hPa | - | - | - | - |
| 1777483967 | 7.78° C | 35% | 1030 hPa | - | - | - | - |
| 1777482167 | 8.33° C | 34% | 1029.9 hPa | - | - | - | - |
| 1777480368 | 8.89° C | 33% | 1029.6 hPa | - | - | - | - |
| 1777478569 | 10° C | 31% | 1029.6 hPa | - | - | - | - |
| 1777476769 | 10° C | 30% | 1029.4 hPa | - | - | - | - |
| 1777474969 | 10.56° C | 29% | 1029.6 hPa | - | - | - | - |
| 1777473171 | 11.67° C | 29% | 1029.3 hPa | - | - | - | - |
| 1777471372 | 12.22° C | 28% | 1029.4 hPa | - | - | - | - |
| 1777469572 | 11.11° C | 28% | 1029.3 hPa | - | - | - | - |
| 1777467773 | 11.67° C | 27% | 1029.2 hPa | - | - | - | - |
| 1777465974 | 12.78° C | 28% | 1029.2 hPa | - | - | - | - |
| 1777464175 | 12.22° C | 27% | 1029.3 hPa | - | - | - | - |
| 1777462376 | 11.67° C | 27% | 1029.2 hPa | - | - | - | - |
| 1777460577 | 11.11° C | 28% | 1029.4 hPa | - | - | - | - |
| 1777458777 | 11.11° C | 28% | 1029.4 hPa | - | - | - | - |
| 1777456977 | 11.11° C | 29% | 1029.4 hPa | - | - | - | - |
| 1777455177 | 10° C | 29% | 1029.6 hPa | - | - | - | - |
| 1777453378 | 10.56° C | 30% | 1029.5 hPa | - | - | - | - |
| 1777451579 | 10° C | 32% | 1029.6 hPa | - | - | - | - |
| 1777449779 | 9.44° C | 34% | 1029.6 hPa | - | - | - | - |
| 1777447979 | 8.33° C | 35% | 1029.3 hPa | - | - | - | - |
| 1777446180 | 7.78° C | 40% | 1029.1 hPa | - | - | - | - |
* Rain since midnight (hover to see other rain measurements)
** Current wind speed in m/s (hover to see current wind gust speed)